sensor_id;sensor_type;location;lat;lon;timestamp;pressure;altitude;pressure_sealevel;temperature;humidity
9839;BME280;4958;48.150;11.506;2023-12-20T00:02:06;94426.72;;;8.29;50.32
9839;BME280;4958;48.150;11.506;2023-12-20T00:04:33;94437.38;;;8.26;50.39
9839;BME280;4958;48.150;11.506;2023-12-20T00:07:04;94435.78;;;8.25;50.77
9839;BME280;4958;48.150;11.506;2023-12-20T00:09:30;94443.06;;;8.21;50.92
9839;BME280;4958;48.150;11.506;2023-12-20T00:11:58;94468.47;;;8.16;51.31
9839;BME280;4958;48.150;11.506;2023-12-20T00:14:24;94477.00;;;8.23;51.44
9839;BME280;4958;48.150;11.506;2023-12-20T00:16:51;94494.97;;;8.30;51.66
9839;BME280;4958;48.150;11.506;2023-12-20T00:19:17;94494.50;;;8.41;51.39
9839;BME280;4958;48.150;11.506;2023-12-20T00:21:44;94485.81;;;8.42;51.59
9839;BME280;4958;48.150;11.506;2023-12-20T00:24:10;94477.75;;;8.45;51.25
9839;BME280;4958;48.150;11.506;2023-12-20T00:26:44;94456.44;;;8.45;50.75
9839;BME280;4958;48.150;11.506;2023-12-20T00:29:14;94454.06;;;8.43;50.39
9839;BME280;4958;48.150;11.506;2023-12-20T00:31:41;94443.81;;;8.43;50.45
9839;BME280;4958;48.150;11.506;2023-12-20T00:34:07;94415.41;;;8.45;50.30
9839;BME280;4958;48.150;11.506;2023-12-20T00:36:34;94410.88;;;8.53;50.01
9839;BME280;4958;48.150;11.506;2023-12-20T00:39:00;94384.44;;;8.53;49.39
9839;BME280;4958;48.150;11.506;2023-12-20T00:41:27;94360.56;;;8.46;49.39
9839;BME280;4958;48.150;11.506;2023-12-20T00:43:54;94345.72;;;8.48;49.29
9839;BME280;4958;48.150;11.506;2023-12-20T00:46:21;94339.25;;;8.52;49.25
9839;BME280;4958;48.150;11.506;2023-12-20T00:48:47;94336.06;;;8.50;49.05
9839;BME280;4958;48.150;11.506;2023-12-20T00:51:15;94317.75;;;8.46;49.00
9839;BME280;4958;48.150;11.506;2023-12-20T00:53:41;94330.56;;;8.53;48.88
9839;BME280;4958;48.150;11.506;2023-12-20T00:56:08;94321.88;;;8.54;49.22
9839;BME280;4958;48.150;11.506;2023-12-20T00:58:34;94315.78;;;8.55;48.92
9839;BME280;4958;48.150;11.506;2023-12-20T01:01:01;94306.50;;;8.54;49.05
9839;BME280;4958;48.150;11.506;2023-12-20T01:03:29;94305.91;;;8.58;48.85
9839;BME280;4958;48.150;11.506;2023-12-20T01:05:55;94311.25;;;8.70;48.95
9839;BME280;4958;48.150;11.506;2023-12-20T01:08:22;94289.75;;;8.78;48.65
9839;BME280;4958;48.150;11.506;2023-12-20T01:10:49;94271.97;;;8.76;48.15
9839;BME280;4958;48.150;11.506;2023-12-20T01:13:15;94272.97;;;8.75;48.40
9839;BME280;4958;48.150;11.506;2023-12-20T01:15:42;94285.00;;;8.75;48.61
9839;BME280;4958;48.150;11.506;2023-12-20T01:18:14;94282.22;;;8.70;48.56
9839;BME280;4958;48.150;11.506;2023-12-20T01:20:42;94286.41;;;8.64;48.79
9839;BME280;4958;48.150;11.506;2023-12-20T01:23:08;94289.34;;;8.68;49.08
9839;BME280;4958;48.150;11.506;2023-12-20T01:25:35;94285.00;;;8.75;48.80
9839;BME280;4958;48.150;11.506;2023-12-20T01:28:01;94290.53;;;8.72;48.80
9839;BME280;4958;48.150;11.506;2023-12-20T01:30:28;94296.06;;;8.75;49.24
9839;BME280;4958;48.150;11.506;2023-12-20T01:32:54;94300.59;;;8.73;49.44
9839;BME280;4958;48.150;11.506;2023-12-20T01:35:21;94305.72;;;8.73;49.62
9839;BME280;4958;48.150;11.506;2023-12-20T01:37:49;94310.88;;;8.80;49.35
9839;BME280;4958;48.150;11.506;2023-12-20T01:40:15;94328.03;;;8.73;49.42
9839;BME280;4958;48.150;11.506;2023-12-20T01:42:45;94331.38;;;8.73;49.54
9839;BME280;4958;48.150;11.506;2023-12-20T01:45:11;94346.00;;;8.73;50.17
9839;BME280;4958;48.150;11.506;2023-12-20T01:47:38;94342.81;;;8.71;50.24
9839;BME280;4958;48.150;11.506;2023-12-20T01:50:06;94337.28;;;8.67;50.15
9839;BME280;4958;48.150;11.506;2023-12-20T01:52:34;94336.50;;;8.66;50.09
9839;BME280;4958;48.150;11.506;2023-12-20T01:55:02;94341.06;;;8.71;50.37
9839;BME280;4958;48.150;11.506;2023-12-20T01:57:31;94346.78;;;8.73;50.60
9839;BME280;4958;48.150;11.506;2023-12-20T02:00:08;94344.22;;;8.80;50.28
9839;BME280;4958;48.150;11.506;2023-12-20T02:02:36;94308.50;;;8.78;50.14
9839;BME280;4958;48.150;11.506;2023-12-20T02:05:05;94296.25;;;8.74;50.37
9839;BME280;4958;48.150;11.506;2023-12-20T02:07:32;94302.75;;;8.70;50.13
9839;BME280;4958;48.150;11.506;2023-12-20T02:10:01;94289.94;;;8.63;50.16
9839;BME280;4958;48.150;11.506;2023-12-20T02:12:29;94292.88;;;8.66;50.27
9839;BME280;4958;48.150;11.506;2023-12-20T02:15:00;94295.06;;;8.76;50.21
9839;BME280;4958;48.150;11.506;2023-12-20T02:17:27;94296.28;;;8.80;50.28
9839;BME280;4958;48.150;11.506;2023-12-20T02:19:54;94289.16;;;8.89;50.07
9839;BME280;4958;48.150;11.506;2023-12-20T02:22:22;94299.03;;;8.92;50.18
9839;BME280;4958;48.150;11.506;2023-12-20T02:24:48;94309.69;;;8.89;50.36
9839;BME280;4958;48.150;11.506;2023-12-20T02:27:15;94321.75;;;8.82;50.72
9839;BME280;4958;48.150;11.506;2023-12-20T02:29:44;94340.09;;;8.79;51.19
9839;BME280;4958;48.150;11.506;2023-12-20T02:32:11;94363.16;;;8.72;51.89
9839;BME280;4958;48.150;11.506;2023-12-20T02:34:37;94378.16;;;8.75;51.88
9839;BME280;4958;48.150;11.506;2023-12-20T02:37:04;94392.78;;;8.75;52.00
9839;BME280;4958;48.150;11.506;2023-12-20T02:39:34;94399.72;;;8.81;52.28
9839;BME280;4958;48.150;11.506;2023-12-20T02:42:01;94392.81;;;8.81;52.75
9839;BME280;4958;48.150;11.506;2023-12-20T02:44:27;94412.16;;;8.84;53.08
9839;BME280;4958;48.150;11.506;2023-12-20T02:46:53;94424.56;;;8.87;52.77
9839;BME280;4958;48.150;11.506;2023-12-20T02:49:20;94436.63;;;8.86;53.21
9839;BME280;4958;48.150;11.506;2023-12-20T02:51:46;94440.19;;;8.92;53.36
9839;BME280;4958;48.150;11.506;2023-12-20T02:54:13;94442.34;;;8.88;53.58
9839;BME280;4958;48.150;11.506;2023-12-20T02:56:41;94454.81;;;8.85;53.83
9839;BME280;4958;48.150;11.506;2023-12-20T02:59:07;94467.03;;;8.89;53.99
9839;BME280;4958;48.150;11.506;2023-12-20T03:01:34;94486.41;;;8.92;53.87
9839;BME280;4958;48.150;11.506;2023-12-20T03:04:01;94496.63;;;8.79;54.18
9839;BME280;4958;48.150;11.506;2023-12-20T03:06:28;94515.78;;;8.83;54.32
9839;BME280;4958;48.150;11.506;2023-12-20T03:08:54;94534.31;;;8.78;55.15
9839;BME280;4958;48.150;11.506;2023-12-20T03:11:20;94564.31;;;8.78;55.17
9839;BME280;4958;48.150;11.506;2023-12-20T03:13:51;94583.09;;;8.78;55.71
9839;BME280;4958;48.150;11.506;2023-12-20T03:16:17;94606.78;;;8.80;56.08
9839;BME280;4958;48.150;11.506;2023-12-20T03:18:44;94625.91;;;8.78;56.75
9839;BME280;4958;48.150;11.506;2023-12-20T03:21:10;94640.53;;;8.77;56.99
9839;BME280;4958;48.150;11.506;2023-12-20T03:23:37;94652.56;;;8.77;57.03
9839;BME280;4958;48.150;11.506;2023-12-20T03:26:06;94652.78;;;8.82;57.00
9839;BME280;4958;48.150;11.506;2023-12-20T03:28:33;94683.16;;;8.78;57.35
9839;BME280;4958;48.150;11.506;2023-12-20T03:31:04;94700.94;;;8.80;57.89
9839;BME280;4958;48.150;11.506;2023-12-20T03:33:30;94732.91;;;8.77;58.12
9839;BME280;4958;48.150;11.506;2023-12-20T03:35:57;94748.50;;;8.76;58.53
9839;BME280;4958;48.150;11.506;2023-12-20T03:38:23;94770.63;;;8.77;58.86
9839;BME280;4958;48.150;11.506;2023-12-20T03:40:50;94788.56;;;8.77;59.05
9839;BME280;4958;48.150;11.506;2023-12-20T03:43:16;94794.94;;;8.81;59.34
9839;BME280;4958;48.150;11.506;2023-12-20T03:45:49;94807.41;;;8.84;59.53
9839;BME280;4958;48.150;11.506;2023-12-20T03:48:17;94822.22;;;8.88;59.46
9839;BME280;4958;48.150;11.506;2023-12-20T03:50:43;94844.72;;;8.86;60.10
9839;BME280;4958;48.150;11.506;2023-12-20T03:53:10;94878.28;;;8.85;60.82
9839;BME280;4958;48.150;11.506;2023-12-20T03:55:36;94903.75;;;8.86;61.34
9839;BME280;4958;48.150;11.506;2023-12-20T03:58:03;94913.66;;;8.89;61.50
9839;BME280;4958;48.150;11.506;2023-12-20T04:00:39;94946.97;;;8.83;62.27
9839;BME280;4958;48.150;11.506;2023-12-20T04:03:05;94974.78;;;8.79;63.22
9839;BME280;4958;48.150;11.506;2023-12-20T04:05:33;94996.63;;;8.75;63.76
9839;BME280;4958;48.150;11.506;2023-12-20T04:08:01;95023.00;;;8.69;64.72
9839;BME280;4958;48.150;11.506;2023-12-20T04:10:28;95052.59;;;8.65;65.28
9839;BME280;4958;48.150;11.506;2023-12-20T04:13:04;95068.56;;;8.67;65.53
9839;BME280;4958;48.150;11.506;2023-12-20T04:15:30;95122.63;;;8.51;67.37
9839;BME280;4958;48.150;11.506;2023-12-20T04:17:57;95115.09;;;8.49;67.51
9839;BME280;4958;48.150;11.506;2023-12-20T04:20:23;95163.78;;;8.43;68.96
9839;BME280;4958;48.150;11.506;2023-12-20T04:22:51;95178.25;;;8.36;70.18
9839;BME280;4958;48.150;11.506;2023-12-20T04:25:24;95214.63;;;8.31;71.31
9839;BME280;4958;48.150;11.506;2023-12-20T04:27:50;95217.84;;;8.33;71.71
9839;BME280;4958;48.150;11.506;2023-12-20T04:30:17;95219.91;;;8.38;71.63
9839;BME280;4958;48.150;11.506;2023-12-20T04:32:43;95230.16;;;8.38;72.17
9839;BME280;4958;48.150;11.506;2023-12-20T04:35:10;95231.31;;;8.35;72.61
9839;BME280;4958;48.150;11.506;2023-12-20T04:37:36;95234.66;;;8.36;72.53
9839;BME280;4958;48.150;11.506;2023-12-20T04:40:13;95253.91;;;8.31;73.27
9839;BME280;4958;48.150;11.506;2023-12-20T04:42:39;95283.81;;;8.16;74.22
9839;BME280;4958;48.150;11.506;2023-12-20T04:45:06;95310.59;;;8.14;75.41
9839;BME280;4958;48.150;11.506;2023-12-20T04:47:33;95322.59;;;8.13;76.11
9839;BME280;4958;48.150;11.506;2023-12-20T04:49:59;95353.25;;;8.07;77.07
9839;BME280;4958;48.150;11.506;2023-12-20T04:52:34;95372.63;;;8.09;77.38
9839;BME280;4958;48.150;11.506;2023-12-20T04:55:00;95390.78;;;8.00;79.12
9839;BME280;4958;48.150;11.506;2023-12-20T04:57:28;95437.88;;;7.98;80.52
9839;BME280;4958;48.150;11.506;2023-12-20T04:59:55;95466.41;;;7.95;82.66
9839;BME280;4958;48.150;11.506;2023-12-20T05:02:21;95495.22;;;7.89;84.01
9839;BME280;4958;48.150;11.506;2023-12-20T05:04:47;95535.00;;;7.85;85.93
9839;BME280;4958;48.150;11.506;2023-12-20T05:07:24;95551.81;;;7.88;86.71
9839;BME280;4958;48.150;11.506;2023-12-20T05:09:50;95567.81;;;7.82;88.39
9839;BME280;4958;48.150;11.506;2023-12-20T05:12:19;95581.91;;;7.78;89.03
9839;BME280;4958;48.150;11.506;2023-12-20T05:14:47;95595.88;;;7.83;89.35
9839;BME280;4958;48.150;11.506;2023-12-20T05:17:22;95595.56;;;7.86;89.61
9839;BME280;4958;48.150;11.506;2023-12-20T05:19:49;95595.72;;;7.85;90.07
9839;BME280;4958;48.150;11.506;2023-12-20T05:22:15;95607.56;;;7.86;90.59
9839;BME280;4958;48.150;11.506;2023-12-20T05:24:42;95617.31;;;7.82;91.28
9839;BME280;4958;48.150;11.506;2023-12-20T05:27:10;95629.00;;;7.77;91.71
9839;BME280;4958;48.150;11.506;2023-12-20T05:29:36;95649.16;;;7.72;92.78
9839;BME280;4958;48.150;11.506;2023-12-20T05:32:10;95656.06;;;7.71;93.33
9839;BME280;4958;48.150;11.506;2023-12-20T05:34:37;95667.09;;;7.63;94.19
9839;BME280;4958;48.150;11.506;2023-12-20T05:37:03;95665.81;;;7.59;94.34
9839;BME280;4958;48.150;11.506;2023-12-20T05:39:30;95664.84;;;7.60;94.82
9839;BME280;4958;48.150;11.506;2023-12-20T05:41:56;95680.47;;;7.41;95.29
9839;BME280;4958;48.150;11.506;2023-12-20T05:44:23;95684.50;;;7.44;95.93
9839;BME280;4958;48.150;11.506;2023-12-20T05:46:49;95676.91;;;7.26;95.79
9839;BME280;4958;48.150;11.506;2023-12-20T05:49:17;95672.06;;;7.23;95.24
9839;BME280;4958;48.150;11.506;2023-12-20T05:51:44;95681.81;;;7.11;97.03
9839;BME280;4958;48.150;11.506;2023-12-20T05:54:10;95699.25;;;7.16;95.89
9839;BME280;4958;48.150;11.506;2023-12-20T05:56:37;95694.28;;;7.14;95.89
9839;BME280;4958;48.150;11.506;2023-12-20T05:59:03;95694.75;;;7.10;95.54
9839;BME280;4958;48.150;11.506;2023-12-20T06:01:29;95689.78;;;7.08;95.00
9839;BME280;4958;48.150;11.506;2023-12-20T06:03:56;95700.03;;;7.08;95.37
9839;BME280;4958;48.150;11.506;2023-12-20T06:06:24;95701.16;;;7.14;95.54
9839;BME280;4958;48.150;11.506;2023-12-20T06:08:51;95699.53;;;7.13;95.39
9839;BME280;4958;48.150;11.506;2023-12-20T06:11:17;95714.38;;;7.01;95.46
9839;BME280;4958;48.150;11.506;2023-12-20T06:13:44;95726.50;;;6.99;96.16
9839;BME280;4958;48.150;11.506;2023-12-20T06:16:18;95727.47;;;6.98;96.04
9839;BME280;4958;48.150;11.506;2023-12-20T06:18:47;95727.75;;;6.95;96.53
9839;BME280;4958;48.150;11.506;2023-12-20T06:21:13;95724.41;;;6.94;95.80
9839;BME280;4958;48.150;11.506;2023-12-20T06:23:41;95719.03;;;6.80;96.44
9839;BME280;4958;48.150;11.506;2023-12-20T06:26:08;95733.13;;;6.84;96.75
9839;BME280;4958;48.150;11.506;2023-12-20T06:28:35;95750.59;;;6.88;97.36
9839;BME280;4958;48.150;11.506;2023-12-20T06:31:01;95752.56;;;6.94;97.49
9839;BME280;4958;48.150;11.506;2023-12-20T06:33:33;95758.72;;;6.84;97.64
9839;BME280;4958;48.150;11.506;2023-12-20T06:36:00;95770.56;;;6.85;98.24
9839;BME280;4958;48.150;11.506;2023-12-20T06:38:27;95760.41;;;6.75;97.68
9839;BME280;4958;48.150;11.506;2023-12-20T06:40:55;95781.03;;;6.74;98.29
9839;BME280;4958;48.150;11.506;2023-12-20T06:43:22;95794.03;;;6.80;99.27
9839;BME280;4958;48.150;11.506;2023-12-20T06:46:01;95782.19;;;6.79;98.63
9839;BME280;4958;48.150;11.506;2023-12-20T06:48:27;95786.78;;;6.76;98.85
9839;BME280;4958;48.150;11.506;2023-12-20T06:50:54;95796.59;;;6.80;98.53
9839;BME280;4958;48.150;11.506;2023-12-20T06:53:20;95791.19;;;6.83;98.79
9839;BME280;4958;48.150;11.506;2023-12-20T06:55:47;95781.81;;;6.74;98.63
9839;BME280;4958;48.150;11.506;2023-12-20T06:58:15;95816.50;;;6.86;100.00
9839;BME280;4958;48.150;11.506;2023-12-20T07:00:41;95795.00;;;6.79;99.33
9839;BME280;4958;48.150;11.506;2023-12-20T07:03:09;95790.63;;;6.72;98.46
9839;BME280;4958;48.150;11.506;2023-12-20T07:05:38;95808.03;;;6.50;99.06
9839;BME280;4958;48.150;11.506;2023-12-20T07:08:13;95827.31;;;6.63;99.89
9839;BME280;4958;48.150;11.506;2023-12-20T07:10:41;95832.28;;;6.64;99.25
9839;BME280;4958;48.150;11.506;2023-12-20T07:13:07;95814.00;;;6.59;98.60
9839;BME280;4958;48.150;11.506;2023-12-20T07:15:47;95848.34;;;6.74;99.89
9839;BME280;4958;48.150;11.506;2023-12-20T07:18:14;95811.25;;;6.70;97.55
9839;BME280;4958;48.150;11.506;2023-12-20T07:20:40;95799.59;;;6.76;96.52
9839;BME280;4958;48.150;11.506;2023-12-20T07:23:07;95797.25;;;6.82;96.26
9839;BME280;4958;48.150;11.506;2023-12-20T07:25:33;95798.66;;;6.77;96.54
9839;BME280;4958;48.150;11.506;2023-12-20T07:28:11;95793.81;;;6.74;96.37
9839;BME280;4958;48.150;11.506;2023-12-20T07:30:37;95800.34;;;6.86;95.59
9839;BME280;4958;48.150;11.506;2023-12-20T07:33:05;95796.69;;;6.88;95.51
9839;BME280;4958;48.150;11.506;2023-12-20T07:35:36;95798.16;;;6.73;95.93
9839;BME280;4958;48.150;11.506;2023-12-20T07:38:24;95797.41;;;6.81;95.69
9839;BME280;4958;48.150;11.506;2023-12-20T07:40:51;95805.31;;;6.87;95.47
9839;BME280;4958;48.150;11.506;2023-12-20T07:43:52;95787.59;;;6.76;95.04
9839;BME280;4958;48.150;11.506;2023-12-20T07:46:27;95798.94;;;6.74;95.61
9839;BME280;4958;48.150;11.506;2023-12-20T07:48:58;95794.03;;;6.80;95.28
9839;BME280;4958;48.150;11.506;2023-12-20T07:51:25;95789.97;;;6.70;94.86
9839;BME280;4958;48.150;11.506;2023-12-20T07:53:51;95801.19;;;6.77;95.08
9839;BME280;4958;48.150;11.506;2023-12-20T07:56:19;95792.13;;;6.82;94.75
9839;BME280;4958;48.150;11.506;2023-12-20T07:58:54;95773.56;;;6.80;94.12
9839;BME280;4958;48.150;11.506;2023-12-20T08:01:21;95780.16;;;6.83;93.68
9839;BME280;4958;48.150;11.506;2023-12-20T08:03:48;95780.50;;;6.88;93.51
9839;BME280;4958;48.150;11.506;2023-12-20T08:06:16;95781.75;;;6.84;93.13
9839;BME280;4958;48.150;11.506;2023-12-20T08:08:43;95791.84;;;6.85;93.38
9839;BME280;4958;48.150;11.506;2023-12-20T09:08:06;95827.25;;;6.90;94.70
9839;BME280;4958;48.150;11.506;2023-12-20T09:10:35;95819.06;;;6.86;94.50
9839;BME280;4958;48.150;11.506;2023-12-20T09:13:02;95839.16;;;6.81;94.96
9839;BME280;4958;48.150;11.506;2023-12-20T09:15:43;95846.41;;;6.68;96.46
9839;BME280;4958;48.150;11.506;2023-12-20T09:18:10;95843.63;;;6.79;96.25
9839;BME280;4958;48.150;11.506;2023-12-20T09:20:36;95860.56;;;6.80;97.11
9839;BME280;4958;48.150;11.506;2023-12-20T09:23:07;95856.25;;;6.81;96.99
9839;BME280;4958;48.150;11.506;2023-12-20T09:25:33;95844.84;;;6.75;96.43
9839;BME280;4958;48.150;11.506;2023-12-20T09:28:06;95853.28;;;6.85;96.73
9839;BME280;4958;48.150;11.506;2023-12-20T09:30:41;95848.00;;;6.87;96.14
9839;BME280;4958;48.150;11.506;2023-12-20T09:33:16;95851.56;;;6.76;96.41
9839;BME280;4958;48.150;11.506;2023-12-20T09:35:53;95845.66;;;6.76;96.60
9839;BME280;4958;48.150;11.506;2023-12-20T09:41:55;95858.44;;;6.76;96.53
9839;BME280;4958;48.150;11.506;2023-12-20T09:44:34;95860.88;;;6.77;96.75
9839;BME280;4958;48.150;11.506;2023-12-20T09:47:03;95858.09;;;6.88;96.31
9839;BME280;4958;48.150;11.506;2023-12-20T09:49:39;95839.44;;;6.96;95.42
9839;BME280;4958;48.150;11.506;2023-12-20T09:52:28;95831.09;;;6.94;94.68
9839;BME280;4958;48.150;11.506;2023-12-20T09:54:59;95819.25;;;6.93;94.70
9839;BME280;4958;48.150;11.506;2023-12-20T10:00:47;95837.63;;;6.88;95.81
9839;BME280;4958;48.150;11.506;2023-12-20T10:03:35;95825.16;;;6.93;95.54
9839;BME280;4958;48.150;11.506;2023-12-20T10:06:03;95818.94;;;6.96;95.50
9839;BME280;4958;48.150;11.506;2023-12-20T10:08:36;95812.22;;;6.95;95.50
9839;BME280;4958;48.150;11.506;2023-12-20T10:11:14;95815.81;;;7.02;95.25
9839;BME280;4958;48.150;11.506;2023-12-20T10:13:50;95829.16;;;7.14;95.32
9839;BME280;4958;48.150;11.506;2023-12-20T10:16:25;95832.53;;;7.14;95.88
9839;BME280;4958;48.150;11.506;2023-12-20T10:19:07;95824.19;;;7.12;95.79
9839;BME280;4958;48.150;11.506;2023-12-20T10:21:41;95824.91;;;7.22;95.22
9839;BME280;4958;48.150;11.506;2023-12-20T10:24:17;95824.09;;;7.22;95.86
9839;BME280;4958;48.150;11.506;2023-12-20T10:27:04;95835.00;;;7.24;96.06
9839;BME280;4958;48.150;11.506;2023-12-20T10:45:38;95831.59;;;7.41;97.03
9839;BME280;4958;48.150;11.506;2023-12-20T10:48:09;95818.72;;;7.33;96.21
9839;BME280;4958;48.150;11.506;2023-12-20T10:50:37;95819.88;;;7.31;96.41
9839;BME280;4958;48.150;11.506;2023-12-20T10:53:12;95813.47;;;7.35;95.87
9839;BME280;4958;48.150;11.506;2023-12-20T10:55:52;95809.63;;;7.31;95.83
9839;BME280;4958;48.150;11.506;2023-12-20T10:58:36;95809.13;;;7.35;95.97
9839;BME280;4958;48.150;11.506;2023-12-20T11:01:12;95811.81;;;7.25;96.88
9839;BME280;4958;48.150;11.506;2023-12-20T11:07:08;95813.47;;;7.35;96.28
9839;BME280;4958;48.150;11.506;2023-12-20T11:10:14;95817.38;;;7.21;97.03
9839;BME280;4958;48.150;11.506;2023-12-20T11:12:47;95812.63;;;7.26;96.95
9839;BME280;4958;48.150;11.506;2023-12-20T11:15:15;95815.69;;;7.30;96.79
9839;BME280;4958;48.150;11.506;2023-12-20T11:17:56;95804.97;;;7.34;96.14
9839;BME280;4958;48.150;11.506;2023-12-20T11:20:35;95806.72;;;7.34;96.42
9839;BME280;4958;48.150;11.506;2023-12-20T11:23:08;95800.81;;;7.33;96.49
9839;BME280;4958;48.150;11.506;2023-12-20T11:25:51;95862.56;;;7.48;100.00
9839;BME280;4958;48.150;11.506;2023-12-20T11:28:37;95921.97;;;7.77;100.00
9839;BME280;4958;48.150;11.506;2023-12-20T11:31:08;95857.69;;;7.96;100.00
9839;BME280;4958;48.150;11.506;2023-12-20T11:33:41;95777.44;;;8.04;96.53
9839;BME280;4958;48.150;11.506;2023-12-20T11:36:34;95698.59;;;8.06;92.09
9839;BME280;4958;48.150;11.506;2023-12-20T11:39:04;95662.53;;;8.00;90.77
9839;BME280;4958;48.150;11.506;2023-12-20T11:41:34;95656.25;;;7.94;90.21
9839;BME280;4958;48.150;11.506;2023-12-20T11:44:00;95650.63;;;7.90;90.11
9839;BME280;4958;48.150;11.506;2023-12-20T11:46:27;95636.72;;;7.85;89.73
9839;BME280;4958;48.150;11.506;2023-12-20T11:49:13;95642.00;;;7.83;90.04
9839;BME280;4958;48.150;11.506;2023-12-20T11:51:45;95634.81;;;7.87;89.56
9839;BME280;4958;48.150;11.506;2023-12-20T11:54:16;95621.19;;;7.86;89.14
9839;BME280;4958;48.150;11.506;2023-12-20T11:56:49;95621.66;;;7.90;88.92
9839;BME280;4958;48.150;11.506;2023-12-20T11:59:16;95607.72;;;7.84;88.39
9839;BME280;4958;48.150;11.506;2023-12-20T12:01:48;95604.34;;;7.76;88.43
9839;BME280;4958;48.150;11.506;2023-12-20T12:06:58;95584.81;;;7.83;87.56
9839;BME280;4958;48.150;11.506;2023-12-20T12:09:24;95575.50;;;7.90;86.90
9839;BME280;4958;48.150;11.506;2023-12-20T12:11:51;95572.47;;;7.94;86.38
9839;BME280;4958;48.150;11.506;2023-12-20T12:14:25;95556.94;;;8.04;85.75
9839;BME280;4958;48.150;11.506;2023-12-20T12:37:23;95501.03;;;7.75;84.17
9839;BME280;4958;48.150;11.506;2023-12-20T12:39:53;95501.19;;;7.74;83.93
9839;BME280;4958;48.150;11.506;2023-12-20T12:42:29;95497.97;;;7.80;84.19
9839;BME280;4958;48.150;11.506;2023-12-20T12:45:21;95497.97;;;7.80;84.62
9839;BME280;4958;48.150;11.506;2023-12-20T12:47:57;95508.38;;;7.78;84.79
9839;BME280;4958;48.150;11.506;2023-12-20T12:50:24;95518.81;;;7.77;85.47
9839;BME280;4958;48.150;11.506;2023-12-20T12:53:00;95524.72;;;7.77;85.52
9839;BME280;4958;48.150;11.506;2023-12-20T12:55:47;95504.69;;;7.73;84.67
9839;BME280;4958;48.150;11.506;2023-12-20T12:58:28;95518.00;;;7.76;85.29
9839;BME280;4958;48.150;11.506;2023-12-20T13:03:53;95597.13;;;7.63;88.13
9839;BME280;4958;48.150;11.506;2023-12-20T13:06:20;95629.59;;;7.54;89.10
9839;BME280;4958;48.150;11.506;2023-12-20T13:08:51;95640.09;;;7.35;89.75
9839;BME280;4958;48.150;11.506;2023-12-20T13:11:21;95618.31;;;7.23;89.29
9839;BME280;4958;48.150;11.506;2023-12-20T13:13:47;95642.81;;;7.25;90.08
9839;BME280;4958;48.150;11.506;2023-12-20T13:16:14;95634.94;;;7.19;89.78
9839;BME280;4958;48.150;11.506;2023-12-20T13:18:50;95653.97;;;7.16;90.48
9839;BME280;4958;48.150;11.506;2023-12-20T13:21:18;95647.56;;;7.20;89.85
9839;BME280;4958;48.150;11.506;2023-12-20T13:23:44;95621.16;;;7.20;88.75
9839;BME280;4958;48.150;11.506;2023-12-20T13:26:34;95617.16;;;7.17;88.26
9839;BME280;4958;48.150;11.506;2023-12-20T13:29:00;95589.28;;;7.14;87.27
9839;BME280;4958;48.150;11.506;2023-12-20T13:31:27;95552.66;;;7.06;85.09
9839;BME280;4958;48.150;11.506;2023-12-20T13:34:10;95540.81;;;7.05;84.87
9839;BME280;4958;48.150;11.506;2023-12-20T13:36:40;95517.06;;;6.94;83.85
9839;BME280;4958;48.150;11.506;2023-12-20T13:39:13;95495.19;;;7.00;82.90
9839;BME280;4958;48.150;11.506;2023-12-20T13:42:02;95480.34;;;7.12;81.78
9839;BME280;4958;48.150;11.506;2023-12-20T13:44:28;95479.22;;;7.06;82.09
9839;BME280;4958;48.150;11.506;2023-12-20T13:46:56;95477.72;;;6.96;82.16
9839;BME280;4958;48.150;11.506;2023-12-20T13:49:30;95486.56;;;7.01;81.69
9839;BME280;4958;48.150;11.506;2023-12-20T13:51:56;95479.38;;;7.05;81.65
9839;BME280;4958;48.150;11.506;2023-12-20T13:54:24;95480.00;;;7.07;81.15
9839;BME280;4958;48.150;11.506;2023-12-20T13:56:50;95491.22;;;7.06;81.49
9839;BME280;4958;48.150;11.506;2023-12-20T13:59:18;95468.81;;;7.08;80.56
9839;BME280;4958;48.150;11.506;2023-12-20T14:01:56;95461.13;;;7.08;80.51
9839;BME280;4958;48.150;11.506;2023-12-20T14:04:23;95444.66;;;7.10;79.77
9839;BME280;4958;48.150;11.506;2023-12-20T14:06:49;95460.97;;;7.09;79.97
9839;BME280;4958;48.150;11.506;2023-12-20T14:09:16;95444.19;;;7.07;79.66
9839;BME280;4958;48.150;11.506;2023-12-20T14:11:42;95437.16;;;7.09;79.08
9839;BME280;4958;48.150;11.506;2023-12-20T14:14:19;95418.09;;;7.11;78.57
9839;BME280;4958;48.150;11.506;2023-12-20T14:16:45;95411.38;;;7.18;78.43
9839;BME280;4958;48.150;11.506;2023-12-20T14:19:12;95405.94;;;7.21;78.00
9839;BME280;4958;48.150;11.506;2023-12-20T14:21:38;95414.25;;;7.23;78.23
9839;BME280;4958;48.150;11.506;2023-12-20T14:24:05;95411.38;;;7.18;77.91
9839;BME280;4958;48.150;11.506;2023-12-20T14:26:41;95393.63;;;7.09;77.34
9839;BME280;4958;48.150;11.506;2023-12-20T14:29:08;95402.91;;;7.10;77.70
9839;BME280;4958;48.150;11.506;2023-12-20T14:31:35;95413.94;;;7.10;77.91
9839;BME280;4958;48.150;11.506;2023-12-20T14:34:04;95404.50;;;7.11;77.93
9839;BME280;4958;48.150;11.506;2023-12-20T14:36:30;95402.41;;;7.06;77.62
9839;BME280;4958;48.150;11.506;2023-12-20T14:39:07;95401.78;;;7.04;77.64
9839;BME280;4958;48.150;11.506;2023-12-20T14:41:34;95456.66;;;7.10;78.94
9839;BME280;4958;48.150;11.506;2023-12-20T14:44:00;95444.00;;;7.16;78.03
9839;BME280;4958;48.150;11.506;2023-12-20T14:46:50;95430.25;;;7.17;78.08
9839;BME280;4958;48.150;11.506;2023-12-20T14:49:43;95467.06;;;7.24;78.65
9839;BME280;4958;48.150;11.506;2023-12-20T14:52:10;95422.91;;;7.31;77.63
9839;BME280;4958;48.150;11.506;2023-12-20T14:54:37;95408.66;;;7.28;77.30
9839;BME280;4958;48.150;11.506;2023-12-20T14:57:04;95393.47;;;7.26;76.83
9839;BME280;4958;48.150;11.506;2023-12-20T14:59:31;95402.59;;;7.29;76.65
9839;BME280;4958;48.150;11.506;2023-12-20T15:05:46;95387.38;;;7.19;76.21
9839;BME280;4958;48.150;11.506;2023-12-20T15:11:53;95352.81;;;7.07;75.17
9839;BME280;4958;48.150;11.506;2023-12-20T15:17:29;95355.84;;;7.03;74.90
9839;BME280;4958;48.150;11.506;2023-12-20T15:19:56;95318.41;;;6.93;74.42
9839;BME280;4958;48.150;11.506;2023-12-20T15:22:38;95297.78;;;6.95;73.43
9839;BME280;4958;48.150;11.506;2023-12-20T15:25:09;95283.56;;;6.92;72.94
9839;BME280;4958;48.150;11.506;2023-12-20T15:27:37;95276.06;;;6.91;73.05
9839;BME280;4958;48.150;11.506;2023-12-20T15:30:04;95255.88;;;6.96;72.58
9839;BME280;4958;48.150;11.506;2023-12-20T15:32:32;95228.38;;;6.98;71.90
9839;BME280;4958;48.150;11.506;2023-12-20T15:34:59;95269.66;;;6.87;72.93
9839;BME280;4958;48.150;11.506;2023-12-20T15:37:41;95251.25;;;6.83;72.52